Time;durP1;ratioP1;P1;durP2;ratioP2;P2;SDS_P1;SDS_P2;PMS_P1;PMS_P2;Temp;Humidity;BMP_temperature;BMP_pressure;BME280_temperature;BME280_humidity;BME280_pressure;Samples;Min_cycle;Max_cycle;Signal;HPM_P1;HPM_P2
2023/10/05 00:01:27;;;;;;;6.97;0.90;;;14.00;99.90;;;;;;5016954;28;20029;-75
2023/10/05 00:03:53;;;;;;;4.20;1.13;;;14.10;99.90;;;;;;5000226;28;20034;-74
2023/10/05 00:06:24;;;;;;;4.95;1.10;;;14.10;99.90;;;;;;4999472;28;20041;-74
2023/10/05 00:08:53;;;;;;;7.75;1.58;;;14.10;99.90;;;;;;5029481;28;20520;-75
2023/10/05 00:11:24;;;;;;;6.32;1.38;;;14.10;99.90;;;;;;4997343;28;20029;-74
2023/10/05 00:13:53;;;;;;;7.40;1.38;;;14.20;99.90;;;;;;5000476;28;20044;-74
2023/10/05 00:16:23;;;;;;;8.70;1.40;;;14.20;99.90;;;;;;4999341;28;20044;-74
2023/10/05 00:18:50;;;;;;;5.85;0.98;;;14.20;99.90;;;;;;5015313;28;20435;-74
2023/10/05 00:21:19;;;;;;;5.53;0.98;;;14.20;99.90;;;;;;5010302;28;20033;-74
2023/10/05 00:24:00;;;;;;;5.68;0.95;;;14.20;99.90;;;;;;5000659;28;20396;-74
2023/10/05 00:26:29;;;;;;;4.78;1.45;;;14.30;99.90;;;;;;4998575;28;20399;-74
2023/10/05 00:31:41;;;;;;;9.25;1.30;;;14.30;99.90;;;;;;5028329;28;20053;-74
2023/10/05 00:34:11;;;;;;;7.13;1.45;;;14.30;99.90;;;;;;5001806;28;20033;-74
2023/10/05 00:36:43;;;;;;;6.00;1.77;;;14.30;99.90;;;;;;5016651;28;20579;-74
2023/10/05 00:39:10;;;;;;;2.63;0.90;;;14.40;99.90;;;;;;5018990;28;20060;-74
2023/10/05 00:41:38;;;;;;;6.25;1.08;;;14.40;99.90;;;;;;4985718;28;20050;-74
2023/10/05 00:44:05;;;;;;;6.45;1.02;;;14.40;99.90;;;;;;5015370;28;20033;-74
2023/10/05 00:46:38;;;;;;;6.13;1.25;;;14.40;99.90;;;;;;5018271;28;20037;-75
2023/10/05 00:49:16;;;;;;;5.15;1.65;;;14.40;99.90;;;;;;4982329;28;20033;-74
2023/10/05 00:51:52;;;;;;;5.03;0.93;;;14.40;99.90;;;;;;5015840;28;20477;-74
2023/10/05 00:54:22;;;;;;;6.15;0.93;;;14.30;99.90;;;;;;5018458;28;20388;-74
2023/10/05 00:56:49;;;;;;;7.32;0.77;;;14.40;99.90;;;;;;5014069;28;20048;-74
2023/10/05 00:59:16;;;;;;;3.83;0.70;;;14.30;99.90;;;;;;4999595;28;20044;-74
2023/10/05 01:04:28;;;;;;;3.83;0.60;;;14.30;99.90;;;;;;5001546;28;20044;-74
2023/10/05 01:06:56;;;;;;;5.13;0.98;;;14.40;99.90;;;;;;5019231;28;20041;-74
2023/10/05 01:12:11;;;;;;;7.10;1.40;;;14.30;99.90;;;;;;5017853;28;20401;-74
2023/10/05 01:15:03;;;;;;;5.32;1.10;;;14.40;99.90;;;;;;5019562;28;20045;-74
2023/10/05 01:17:30;;;;;;;7.25;1.45;;;14.30;99.90;;;;;;5018544;28;20029;-74
2023/10/05 01:20:07;;;;;;;7.90;0.98;;;14.40;99.90;;;;;;5018203;28;20032;-74
2023/10/05 01:22:38;;;;;;;3.30;1.02;;;14.40;99.90;;;;;;5030241;28;20041;-74
2023/10/05 01:25:06;;;;;;;4.97;1.20;;;14.40;99.90;;;;;;4986197;28;20060;-73
2023/10/05 01:27:32;;;;;;;7.68;0.98;;;14.40;99.90;;;;;;5001358;28;20511;-74
2023/10/05 01:30:00;;;;;;;4.53;0.90;;;14.40;99.90;;;;;;5034676;28;20087;-74
2023/10/05 01:32:27;;;;;;;5.07;0.98;;;14.40;99.90;;;;;;5019439;28;20036;-74
2023/10/05 01:34:54;;;;;;;5.57;0.85;;;14.40;99.90;;;;;;4986489;28;20033;-74
2023/10/05 01:37:33;;;;;;;6.20;1.02;;;14.40;99.90;;;;;;5017715;28;20184;-74
2023/10/05 01:40:01;;;;;;;7.88;1.20;;;14.30;99.90;;;;;;5030836;28;20057;-74
2023/10/05 01:42:30;;;;;;;5.63;1.30;;;14.30;99.90;;;;;;5020631;28;20033;-74
2023/10/05 01:44:56;;;;;;;4.25;1.00;;;14.30;99.90;;;;;;5018413;28;20415;-74
2023/10/05 01:47:23;;;;;;;3.22;0.90;;;14.30;99.90;;;;;;5002604;28;20042;-74
2023/10/05 01:49:51;;;;;;;5.60;1.00;;;14.30;99.90;;;;;;5003495;28;20033;-74
2023/10/05 01:52:18;;;;;;;6.03;1.25;;;14.20;99.90;;;;;;5003980;28;20036;-74
2023/10/05 01:54:44;;;;;;;6.57;1.35;;;14.10;99.90;;;;;;5021419;28;20408;-74
2023/10/05 01:57:13;;;;;;;3.88;0.80;;;14.10;99.90;;;;;;5018818;28;20052;-74
2023/10/05 01:59:40;;;;;;;3.38;0.98;;;14.00;99.90;;;;;;5018596;28;20029;-74
2023/10/05 02:02:10;;;;;;;5.68;1.15;;;14.00;99.90;;;;;;5002193;28;20048;-74
2023/10/05 02:04:49;;;;;;;8.10;2.08;;;13.90;99.90;;;;;;5003237;28;20048;-74
2023/10/05 02:07:15;;;;;;;6.03;1.52;;;13.90;99.90;;;;;;5002997;28;20049;-74
2023/10/05 02:09:42;;;;;;;5.15;1.48;;;13.80;99.90;;;;;;5002564;28;20527;-75
2023/10/05 02:12:09;;;;;;;6.38;1.73;;;13.80;99.90;;;;;;5001704;28;20516;-74
2023/10/05 02:14:41;;;;;;;5.47;1.27;;;13.80;99.90;;;;;;5018720;28;20041;-74
2023/10/05 02:17:12;;;;;;;5.03;0.93;;;13.80;99.90;;;;;;5016958;28;20033;-74
2023/10/05 02:19:41;;;;;;;5.63;1.10;;;13.80;99.90;;;;;;5016745;28;20403;-74
2023/10/05 02:22:12;;;;;;;7.50;1.20;;;13.80;99.90;;;;;;4985066;28;20033;-74
2023/10/05 02:24:40;;;;;;;5.65;1.58;;;13.80;99.90;;;;;;4984953;28;20034;-74
2023/10/05 02:27:11;;;;;;;4.75;1.50;;;13.80;99.90;;;;;;4985118;28;20041;-74
2023/10/05 02:29:43;;;;;;;6.15;1.33;;;13.80;99.90;;;;;;5030506;28;20571;-74
2023/10/05 02:32:11;;;;;;;5.40;1.30;;;13.80;99.90;;;;;;5018378;28;20033;-74
2023/10/05 02:37:24;;;;;;;3.00;0.88;;;13.80;99.90;;;;;;5031427;28;20033;-74
2023/10/05 02:39:51;;;;;;;2.85;1.10;;;13.70;99.90;;;;;;5017083;28;20037;-74
2023/10/05 02:42:21;;;;;;;8.23;2.10;;;13.70;99.90;;;;;;5018086;28;20041;-73
2023/10/05 02:44:49;;;;;;;4.45;0.90;;;13.70;99.90;;;;;;5017629;28;20813;-73
2023/10/05 02:47:23;;;;;;;6.32;1.38;;;13.60;99.90;;;;;;5018293;28;20033;-74
2023/10/05 02:49:49;;;;;;;7.80;1.30;;;13.60;99.90;;;;;;5001080;28;20488;-74
2023/10/05 02:52:16;;;;;;;9.30;1.08;;;13.60;99.90;;;;;;5020329;28;20042;-73
2023/10/05 02:54:43;;;;;;;5.07;1.42;;;13.50;99.90;;;;;;5001474;28;20048;-74
2023/10/05 02:57:14;;;;;;;6.15;1.50;;;13.50;99.90;;;;;;5015805;28;20030;-74
2023/10/05 02:59:41;;;;;;;7.57;1.92;;;13.50;99.90;;;;;;5016996;28;20029;-74
2023/10/05 03:02:09;;;;;;;4.07;1.27;;;13.50;99.90;;;;;;5001494;28;20025;-74
2023/10/05 03:04:45;;;;;;;5.30;1.67;;;13.40;99.90;;;;;;5000780;28;20052;-74
2023/10/05 03:07:18;;;;;;;5.60;1.20;;;13.40;99.90;;;;;;5016887;28;20500;-74
2023/10/05 03:09:46;;;;;;;4.13;1.33;;;13.40;99.90;;;;;;5017958;28;20033;-74
2023/10/05 03:12:13;;;;;;;6.80;1.83;;;13.40;99.90;;;;;;5002532;28;20037;-74
2023/10/05 03:14:43;;;;;;;5.40;1.30;;;13.40;99.90;;;;;;5000681;28;20044;-73
2023/10/05 03:17:13;;;;;;;4.47;1.42;;;13.40;99.90;;;;;;4997487;28;21293;-73
2023/10/05 03:19:40;;;;;;;6.65;2.38;;;13.40;99.90;;;;;;5016818;28;20036;-73
2023/10/05 03:22:12;;;;;;;7.30;1.52;;;13.40;99.90;;;;;;5000160;28;20044;-74
2023/10/05 03:24:44;;;;;;;7.13;2.03;;;13.40;99.90;;;;;;5001637;28;20060;-74
2023/10/05 03:27:14;;;;;;;6.13;1.98;;;13.30;99.90;;;;;;4999683;28;20392;-74
2023/10/05 03:29:45;;;;;;;6.90;1.65;;;13.30;99.90;;;;;;4984944;28;20035;-74
2023/10/05 03:32:14;;;;;;;5.47;1.45;;;13.30;99.90;;;;;;5018025;28;20409;-74
2023/10/05 03:34:55;;;;;;;3.95;1.67;;;13.30;99.90;;;;;;5000075;28;20052;-74
2023/10/05 03:37:22;;;;;;;6.95;1.40;;;13.20;99.90;;;;;;5017472;28;20033;-74
2023/10/05 03:39:53;;;;;;;5.55;1.70;;;13.30;99.90;;;;;;5001950;28;20026;-74
2023/10/05 03:42:23;;;;;;;7.85;2.75;;;13.30;99.90;;;;;;5017285;28;20390;-74
2023/10/05 03:45:11;;;;;;;5.32;1.63;;;13.40;99.90;;;;;;5017500;28;20037;-74
2023/10/05 03:47:38;;;;;;;4.22;1.77;;;13.40;99.90;;;;;;4992756;28;20379;-74
2023/10/05 03:50:07;;;;;;;4.28;1.48;;;13.50;99.90;;;;;;4998196;28;20041;-74
2023/10/05 03:52:34;;;;;;;6.38;1.58;;;13.50;99.90;;;;;;4999269;28;20033;-74
2023/10/05 03:55:09;;;;;;;5.18;2.33;;;13.50;99.90;;;;;;5017634;28;20452;-74
2023/10/05 03:57:41;;;;;;;10.27;2.63;;;13.50;99.90;;;;;;5028808;28;20063;-74
2023/10/05 04:02:49;;;;;;;8.23;2.13;;;13.50;99.90;;;;;;4999666;28;20052;-74
2023/10/05 04:05:20;;;;;;;4.32;1.50;;;13.50;99.90;;;;;;5015941;28;20057;-74
2023/10/05 04:07:55;;;;;;;6.20;2.00;;;13.50;99.90;;;;;;4998497;28;20059;-74
2023/10/05 04:10:23;;;;;;;5.80;1.92;;;13.40;99.90;;;;;;5015741;28;20033;-74
2023/10/05 04:12:51;;;;;;;6.22;2.17;;;13.50;99.90;;;;;;4999082;28;20033;-74
2023/10/05 04:15:20;;;;;;;7.32;1.90;;;13.40;99.90;;;;;;5000217;28;20057;-74
2023/10/05 04:17:49;;;;;;;8.45;2.40;;;13.40;99.90;;;;;;5015720;28;20408;-74
2023/10/05 04:20:22;;;;;;;6.95;2.13;;;13.40;99.90;;;;;;5017062;28;20060;-74
2023/10/05 04:22:49;;;;;;;8.27;2.78;;;13.30;99.90;;;;;;4999604;28;20038;-74
2023/10/05 04:25:16;;;;;;;5.65;2.30;;;13.30;99.90;;;;;;5016759;28;20493;-74
2023/10/05 04:27:48;;;;;;;6.25;2.15;;;13.30;99.90;;;;;;4998352;28;20041;-74
2023/10/05 04:30:18;;;;;;;9.02;3.08;;;13.20;99.90;;;;;;5016333;28;20508;-74
2023/10/05 04:32:44;;;;;;;9.18;3.13;;;13.30;99.90;;;;;;4998934;28;20033;-74
2023/10/05 04:35:20;;;;;;;5.72;2.35;;;13.30;99.90;;;;;;5016658;28;20045;-74
2023/10/05 04:37:47;;;;;;;4.43;2.63;;;13.30;99.90;;;;;;5017304;28;20388;-74
2023/10/05 04:40:15;;;;;;;7.10;3.17;;;13.20;99.90;;;;;;5023364;28;20037;-74
2023/10/05 04:42:42;;;;;;;9.50;2.53;;;13.20;99.90;;;;;;4998398;28;20040;-74
2023/10/05 04:45:14;;;;;;;11.38;3.35;;;13.20;99.90;;;;;;5002544;28;20044;-74
2023/10/05 04:47:41;;;;;;;6.05;2.17;;;13.20;99.90;;;;;;5018164;28;20612;-74
2023/10/05 04:50:10;;;;;;;8.40;2.50;;;13.20;99.90;;;;;;5003614;28;20041;-74
2023/10/05 04:52:37;;;;;;;4.20;1.52;;;13.20;99.90;;;;;;5021053;28;20221;-74
2023/10/05 04:55:23;;;;;;;6.65;1.80;;;13.20;99.90;;;;;;5018788;28;20029;-74
2023/10/05 04:57:50;;;;;;;5.68;1.98;;;13.20;99.90;;;;;;5017136;28;20029;-74
2023/10/05 05:03:17;;;;;;;8.05;2.22;;;13.10;99.90;;;;;;5019585;28;20037;-74
2023/10/05 05:06:00;;;;;;;8.80;2.40;;;13.10;99.90;;;;;;4986585;28;20492;-74
2023/10/05 05:08:27;;;;;;;6.13;2.28;;;13.10;99.90;;;;;;5019281;28;20056;-74
2023/10/05 05:10:53;;;;;;;6.18;2.45;;;13.00;99.90;;;;;;5020957;28;20065;-74
2023/10/05 05:13:20;;;;;;;5.72;1.63;;;13.00;99.90;;;;;;5020032;28;20029;-74
2023/10/05 05:15:47;;;;;;;4.95;2.00;;;12.90;99.90;;;;;;5020868;28;20025;-74
2023/10/05 05:18:14;;;;;;;9.35;2.45;;;12.90;99.90;;;;;;5001068;28;20042;-74
2023/10/05 05:20:42;;;;;;;6.38;1.83;;;12.90;99.90;;;;;;5001240;28;20030;-74
2023/10/05 05:23:10;;;;;;;9.13;3.00;;;12.90;99.90;;;;;;5002613;28;20392;-74
2023/10/05 05:25:37;;;;;;;5.88;1.98;;;12.80;99.90;;;;;;5018675;28;20041;-74
2023/10/05 05:28:05;;;;;;;5.65;2.67;;;12.80;99.90;;;;;;5017999;28;20041;-74
2023/10/05 05:30:32;;;;;;;7.68;2.75;;;12.80;99.90;;;;;;5003105;28;20044;-74
2023/10/05 05:32:59;;;;;;;7.15;2.30;;;12.70;99.90;;;;;;5001985;28;20042;-74
2023/10/05 05:35:28;;;;;;;3.97;2.10;;;12.70;99.90;;;;;;5018511;28;20025;-74
2023/10/05 05:37:56;;;;;;;5.55;2.58;;;12.70;99.90;;;;;;5018573;28;20045;-74
2023/10/05 05:40:23;;;;;;;8.40;2.28;;;12.70;99.90;;;;;;5001425;28;20037;-73
2023/10/05 05:42:54;;;;;;;6.07;2.58;;;12.70;99.90;;;;;;5001781;28;20472;-73
2023/10/05 05:45:20;;;;;;;7.00;2.67;;;12.70;99.90;;;;;;5018900;28;20034;-75
2023/10/05 05:47:47;;;;;;;5.72;2.58;;;12.60;99.90;;;;;;5002729;28;20040;-73
2023/10/05 05:50:17;;;;;;;5.90;2.45;;;12.70;99.90;;;;;;5017624;28;20388;-74
2023/10/05 05:52:47;;;;;;;7.93;2.95;;;12.70;99.90;;;;;;5018554;28;20472;-73
2023/10/05 05:55:17;;;;;;;5.25;2.10;;;12.80;99.90;;;;;;5016992;28;20036;-73
2023/10/05 05:57:43;;;;;;;6.15;2.90;;;12.80;99.90;;;;;;5016718;28;20041;-75
2023/10/05 06:00:17;;;;;;;7.10;3.55;;;12.80;99.90;;;;;;5001378;28;20496;-74
2023/10/05 06:02:44;;;;;;;9.82;3.38;;;12.90;99.90;;;;;;5002088;28;20499;-73
2023/10/05 06:05:11;;;;;;;6.93;2.45;;;12.90;99.90;;;;;;5018278;28;20709;-73
2023/10/05 06:07:39;;;;;;;6.63;2.50;;;12.90;99.90;;;;;;5016675;28;20045;-73
2023/10/05 06:10:12;;;;;;;7.28;2.53;;;13.00;99.90;;;;;;5017863;28;20491;-74
2023/10/05 06:12:40;;;;;;;5.13;2.00;;;13.00;99.90;;;;;;5020045;28;20038;-74
2023/10/05 06:15:06;;;;;;;9.40;3.15;;;13.00;99.90;;;;;;4985832;28;20036;-74
2023/10/05 06:17:36;;;;;;;11.55;3.95;;;13.00;99.90;;;;;;5018657;28;20542;-74
2023/10/05 06:20:13;;;;;;;10.52;3.75;;;13.10;99.90;;;;;;5019028;28;20048;-74
2023/10/05 06:22:44;;;;;;;6.20;2.13;;;13.10;99.90;;;;;;5016368;28;20491;-74
2023/10/05 06:25:12;;;;;;;7.35;3.45;;;13.10;99.90;;;;;;5017349;28;20030;-74
2023/10/05 06:27:39;;;;;;;8.57;3.63;;;13.10;99.90;;;;;;4995072;28;20600;-74
2023/10/05 06:30:07;;;;;;;9.98;2.92;;;13.10;99.90;;;;;;5019073;28;20033;-74
2023/10/05 06:32:33;;;;;;;6.60;2.33;;;13.20;99.90;;;;;;5014917;28;20040;-73
2023/10/05 06:35:00;;;;;;;4.68;2.33;;;13.20;99.90;;;;;;5000967;28;20056;-73
2023/10/05 06:37:26;;;;;;;7.63;3.42;;;13.20;99.90;;;;;;5001412;28;20040;-74
2023/10/05 06:39:53;;;;;;;7.50;3.80;;;13.20;99.90;;;;;;5018430;28;20045;-74
2023/10/05 06:42:20;;;;;;;7.55;3.45;;;13.30;99.90;;;;;;4987538;28;20486;-74
2023/10/05 06:44:48;;;;;;;7.65;3.08;;;13.30;99.90;;;;;;5018094;28;20764;-74
2023/10/05 06:50:00;;;;;;;5.13;2.42;;;13.40;99.90;;;;;;5036480;28;20034;-72
2023/10/05 06:52:26;;;;;;;4.97;2.22;;;13.40;99.90;;;;;;5013688;28;20049;-76
2023/10/05 06:54:53;;;;;;;7.45;2.28;;;13.50;99.90;;;;;;5000415;28;20029;-74
2023/10/05 06:57:19;;;;;;;5.63;2.33;;;13.50;99.90;;;;;;5000356;28;20037;-74
2023/10/05 06:59:45;;;;;;;4.80;2.25;;;13.60;99.90;;;;;;4995786;28;20540;-75
2023/10/05 07:02:12;;;;;;;6.00;2.13;;;13.60;99.90;;;;;;5010927;28;20035;-74
2023/10/05 07:04:38;;;;;;;7.22;3.03;;;13.70;99.90;;;;;;5018214;28;20034;-76
2023/10/05 07:07:05;;;;;;;9.20;2.80;;;13.70;99.90;;;;;;4983803;28;20698;-76
2023/10/05 07:09:31;;;;;;;6.70;2.88;;;13.80;99.90;;;;;;5028982;28;20510;-75
2023/10/05 07:11:58;;;;;;;6.50;2.33;;;13.80;99.90;;;;;;4999783;28;20040;-74
2023/10/05 07:14:25;;;;;;;9.60;3.28;;;13.90;99.90;;;;;;4997578;28;20037;-74
2023/10/05 07:16:51;;;;;;;10.45;3.92;;;13.90;99.90;;;;;;5015635;28;20037;-74
2023/10/05 07:19:18;;;;;;;5.90;1.88;;;14.00;99.90;;;;;;5000352;28;20025;-74
2023/10/05 07:21:44;;;;;;;7.60;2.60;;;14.00;99.90;;;;;;5014797;28;20040;-75
2023/10/05 07:24:10;;;;;;;8.38;2.70;;;14.10;99.90;;;;;;5031076;28;20387;-74
2023/10/05 07:26:37;;;;;;;5.97;2.10;;;14.20;99.90;;;;;;4998668;28;20056;-74
2023/10/05 07:29:04;;;;;;;6.53;2.40;;;14.30;99.90;;;;;;5015394;28;20032;-75
2023/10/05 07:31:30;;;;;;;9.50;2.97;;;14.30;99.90;;;;;;5015759;28;20034;-75
2023/10/05 07:33:57;;;;;;;6.05;2.22;;;14.40;99.90;;;;;;5015930;28;20503;-74
2023/10/05 07:36:23;;;;;;;8.10;2.22;;;14.40;99.90;;;;;;5029141;28;20044;-74
2023/10/05 07:38:50;;;;;;;6.57;2.30;;;14.50;99.90;;;;;;5017119;28;20432;-75
2023/10/05 07:41:16;;;;;;;9.60;2.80;;;14.50;99.90;;;;;;5000039;28;20036;-74
2023/10/05 07:43:44;;;;;;;7.80;2.55;;;14.60;99.90;;;;;;4999759;28;20610;-75
2023/10/05 07:46:11;;;;;;;5.70;2.20;;;14.70;99.90;;;;;;5017766;28;21294;-75
2023/10/05 07:48:38;;;;;;;8.50;2.42;;;14.80;99.90;;;;;;5015939;28;20033;-75
2023/10/05 07:51:06;;;;;;;7.43;2.50;;;14.90;99.90;;;;;;4981585;28;20056;-74
2023/10/05 07:53:32;;;;;;;6.38;2.25;;;15.00;99.90;;;;;;4998781;28;20041;-74
2023/10/05 07:55:59;;;;;;;6.43;1.65;;;15.10;99.90;;;;;;4997169;28;20037;-75
2023/10/05 07:58:25;;;;;;;7.93;2.65;;;15.20;99.90;;;;;;5016554;28;20029;-75
2023/10/05 08:00:52;;;;;;;5.32;2.05;;;15.30;99.90;;;;;;5014610;28;20571;-74
2023/10/05 08:03:18;;;;;;;6.50;1.92;;;15.40;99.90;;;;;;5018335;28;20034;-75
2023/10/05 08:05:45;;;;;;;4.75;2.15;;;15.50;99.90;;;;;;4998072;28;20037;-75
2023/10/05 08:08:11;;;;;;;5.13;2.03;;;15.50;99.90;;;;;;5017958;28;20032;-75
2023/10/05 08:10:38;;;;;;;8.32;1.88;;;15.60;99.90;;;;;;5017161;28;20068;-75
2023/10/05 08:13:05;;;;;;;9.38;2.67;;;15.70;99.90;;;;;;4984713;28;20115;-75
2023/10/05 08:15:33;;;;;;;4.22;1.60;;;15.70;99.90;;;;;;4982925;28;20048;-75
2023/10/05 08:17:59;;;;;;;7.50;2.70;;;15.80;99.90;;;;;;5017184;28;20040;-74
2023/10/05 08:20:26;;;;;;;6.68;2.33;;;15.90;99.90;;;;;;5000748;28;20071;-75
2023/10/05 08:22:54;;;;;;;6.15;2.78;;;16.00;99.90;;;;;;5017079;28;20602;-75
2023/10/05 08:25:22;;;;;;;6.95;2.22;;;16.00;99.90;;;;;;5013493;28;20501;-74
2023/10/05 08:27:48;;;;;;;3.90;1.60;;;16.10;99.90;;;;;;5000626;28;20579;-75
2023/10/05 08:30:15;;;;;;;9.85;2.28;;;16.10;99.90;;;;;;4999084;28;20033;-76
2023/10/05 08:32:41;;;;;;;6.38;1.75;;;16.20;99.90;;;;;;5013550;28;20039;-75
2023/10/05 08:35:14;;;;;;;6.85;1.98;;;16.30;99.90;;;;;;5030703;28;20042;-74
2023/10/05 08:37:49;;;;;;;6.90;2.50;;;16.40;99.90;;;;;;5014980;28;20476;-75
2023/10/05 08:43:10;;;;;;;6.72;2.17;;;16.60;99.90;;;;;;5017078;28;20026;-75
2023/10/05 08:46:02;;;;;;;4.55;1.55;;;16.70;99.90;;;;;;5013021;28;20034;-74
2023/10/05 08:48:30;;;;;;;7.72;2.03;;;16.80;99.90;;;;;;5017424;28;20049;-75
2023/10/05 08:51:07;;;;;;;6.00;1.95;;;16.90;99.90;;;;;;5018185;28;20029;-74
2023/10/05 08:53:35;;;;;;;7.22;1.77;;;17.00;99.90;;;;;;5000703;28;20045;-74
2023/10/05 08:56:02;;;;;;;6.78;1.65;;;17.10;99.90;;;;;;4998096;28;20083;-75
2023/10/05 08:58:29;;;;;;;5.88;1.83;;;17.20;99.90;;;;;;5012538;28;20034;-75
2023/10/05 09:01:00;;;;;;;7.20;2.10;;;17.30;99.90;;;;;;5028175;28;20032;-74
2023/10/05 09:03:29;;;;;;;8.57;1.85;;;17.30;99.90;;;;;;4992436;28;20030;-74
2023/10/05 09:06:20;;;;;;;6.55;1.50;;;17.40;99.90;;;;;;5017787;28;20029;-77
2023/10/05 09:08:53;;;;;;;5.45;1.95;;;17.50;99.90;;;;;;5013668;28;20033;-76
2023/10/05 09:11:35;;;;;;;5.45;1.63;;;17.60;99.90;;;;;;5029258;28;20045;-76
2023/10/05 09:14:13;;;;;;;5.38;1.50;;;17.70;99.90;;;;;;5012702;28;20033;-74
2023/10/05 09:16:41;;;;;;;7.40;2.05;;;17.90;99.90;;;;;;4996524;28;20465;-75
2023/10/05 09:19:13;;;;;;;8.10;1.50;;;17.90;99.90;;;;;;5014479;28;20030;-76
2023/10/05 09:21:42;;;;;;;6.70;2.08;;;18.00;99.90;;;;;;5016747;28;20479;-75
2023/10/05 09:24:19;;;;;;;5.70;1.73;;;18.10;99.90;;;;;;5017266;28;20034;-75
2023/10/05 09:26:54;;;;;;;7.82;1.98;;;18.10;99.90;;;;;;5012926;28;20029;-75
2023/10/05 09:29:30;;;;;;;5.90;1.30;;;18.10;99.90;;;;;;5003607;28;20037;-74
2023/10/05 09:32:00;;;;;;;3.58;1.00;;;18.10;99.90;;;;;;5003958;28;20045;-75
2023/10/05 09:34:39;;;;;;;4.30;1.25;;;18.10;99.90;;;;;;5017871;28;20032;-75
2023/10/05 09:37:09;;;;;;;6.30;1.30;;;18.10;99.90;;;;;;5032425;28;20041;-75
2023/10/05 09:39:46;;;;;;;5.88;1.30;;;18.10;99.90;;;;;;5000529;28;20032;-74
2023/10/05 09:42:22;;;;;;;5.90;1.20;;;18.10;99.90;;;;;;5034807;28;20041;-75
2023/10/05 09:44:54;;;;;;;4.40;1.05;;;18.00;99.90;;;;;;5035859;28;20491;-75
2023/10/05 09:47:25;;;;;;;5.00;1.95;;;18.00;99.90;;;;;;5016348;28;20036;-74
2023/10/05 09:49:54;;;;;;;6.75;1.65;;;18.10;99.90;;;;;;4981744;28;20059;-75
2023/10/05 09:52:23;;;;;;;4.95;0.80;;;18.10;99.90;;;;;;5019420;28;20038;-75
2023/10/05 09:54:50;;;;;;;5.93;1.33;;;18.20;99.90;;;;;;5016244;28;20472;-75
2023/10/05 09:57:18;;;;;;;4.53;1.38;;;18.20;99.90;;;;;;5015850;28;20037;-75
2023/10/05 09:59:48;;;;;;;5.30;1.60;;;18.20;99.90;;;;;;5018674;28;20359;-75
2023/10/05 10:02:16;;;;;;;7.85;1.38;;;18.20;99.90;;;;;;5033234;28;20028;-75
2023/10/05 10:04:46;;;;;;;6.88;1.33;;;18.20;99.90;;;;;;5018495;28;20523;-75
2023/10/05 10:07:22;;;;;;;6.00;1.40;;;18.20;99.90;;;;;;5018963;28;20030;-75
2023/10/05 10:09:53;;;;;;;4.53;1.00;;;18.30;99.90;;;;;;5020307;28;20472;-74
2023/10/05 10:12:38;;;;;;;4.20;0.80;;;18.40;99.90;;;;;;5020454;28;20029;-73
2023/10/05 10:15:17;;;;;;;9.55;1.42;;;18.50;99.90;;;;;;5020796;28;20025;-73
2023/10/05 10:17:53;;;;;;;6.82;1.70;;;18.50;99.90;;;;;;5017253;28;20048;-74
2023/10/05 10:20:35;;;;;;;7.57;1.23;;;18.50;99.90;;;;;;5018773;28;20341;-73
2023/10/05 10:23:14;;;;;;;11.95;2.15;;;18.50;99.90;;;;;;5000002;28;20033;-74
2023/10/05 10:25:41;;;;;;;8.70;2.10;;;18.60;99.90;;;;;;5015087;28;20033;-73
2023/10/05 10:28:17;;;;;;;10.40;1.90;;;18.70;99.90;;;;;;5001421;28;20033;-73
2023/10/05 10:30:47;;;;;;;4.68;1.77;;;18.80;99.90;;;;;;5030828;28;20476;-73
2023/10/05 10:33:27;;;;;;;6.32;1.35;;;18.90;99.90;;;;;;5002889;28;20485;-74
2023/10/05 10:35:56;;;;;;;4.40;0.80;;;19.00;99.90;;;;;;4987800;28;20033;-73
2023/10/05 10:38:22;;;;;;;4.15;1.10;;;19.10;99.90;;;;;;5017410;28;20032;-74
2023/10/05 10:41:15;;;;;;;5.05;0.98;;;19.10;99.90;;;;;;5018391;28;20025;-74
2023/10/05 10:43:49;;;;;;;4.78;1.17;;;19.20;99.90;;;;;;5002342;28;20025;-76
2023/10/05 10:46:30;;;;;;;5.50;1.35;;;19.20;99.90;;;;;;5017242;28;20033;-74
2023/10/05 10:48:57;;;;;;;6.43;1.58;;;19.30;99.90;;;;;;5017897;28;20034;-77
2023/10/05 10:51:38;;;;;;;5.32;1.15;;;19.30;99.90;;;;;;5002483;28;20045;-74
2023/10/05 10:54:17;;;;;;;3.03;0.88;;;19.40;99.90;;;;;;5017599;28;20029;-74
2023/10/05 10:56:44;;;;;;;4.00;1.05;;;19.40;99.90;;;;;;5029660;28;20060;-74
2023/10/05 10:59:13;;;;;;;5.63;1.50;;;19.50;99.90;;;;;;5018233;28;20412;-74
2023/10/05 11:01:42;;;;;;;7.85;1.63;;;19.60;99.90;;;;;;5002009;28;20041;-73
2023/10/05 11:04:25;;;;;;;7.45;1.40;;;19.70;99.90;;;;;;5018466;28;20464;-74
2023/10/05 11:07:00;;;;;;;8.02;2.88;;;19.80;99.90;;;;;;5000687;28;20029;-73
2023/10/05 11:09:30;;;;;;;7.13;1.60;;;19.90;99.90;;;;;;5031117;28;20052;-74
2023/10/05 11:12:08;;;;;;;4.22;1.02;;;20.20;99.90;;;;;;4985560;28;20037;-74
2023/10/05 11:14:36;;;;;;;6.65;1.20;;;20.40;99.90;;;;;;5016909;28;20033;-74
2023/10/05 11:17:11;;;;;;;5.68;1.33;;;20.40;99.90;;;;;;4984241;28;20380;-74
2023/10/05 11:19:40;;;;;;;7.97;1.80;;;20.40;99.90;;;;;;5001302;28;20044;-75
2023/10/05 11:22:11;;;;;;;9.93;1.65;;;20.60;99.90;;;;;;5017140;28;20489;-75
2023/10/05 11:25:16;;;;;;;5.35;1.25;;;20.60;99.90;;;;;;4999952;28;20029;-75
2023/10/05 11:27:56;;;;;;;6.03;1.13;;;20.60;99.90;;;;;;5006271;28;20030;-76
2023/10/05 11:30:49;;;;;;;6.25;1.27;;;20.50;99.90;;;;;;5018295;28;20383;-73
2023/10/05 11:33:15;;;;;;;4.63;0.98;;;20.40;99.90;;;;;;5012700;28;20264;-75
2023/10/05 11:35:51;;;;;;;3.78;0.90;;;20.30;99.90;;;;;;5016773;28;20029;-75
2023/10/05 11:38:19;;;;;;;4.78;0.95;;;20.30;99.90;;;;;;5016922;28;20048;-75
2023/10/05 11:40:49;;;;;;;6.90;1.17;;;20.30;99.90;;;;;;5001712;28;20029;-74
2023/10/05 11:43:18;;;;;;;5.85;1.58;;;20.10;99.90;;;;;;5017324;28;20029;-75
2023/10/05 11:46:17;;;;;;;7.70;1.13;;;20.20;99.90;;;;;;5014713;28;20044;-75
2023/10/05 11:48:55;;;;;;;4.25;0.70;;;20.50;99.90;;;;;;5016533;28;20476;-75
2023/10/05 11:51:42;;;;;;;4.47;0.90;;;21.00;99.90;;;;;;5000528;28;20056;-74
2023/10/05 11:54:09;;;;;;;7.55;1.67;;;21.70;99.90;;;;;;5029268;28;20022;-74
2023/10/05 11:56:38;;;;;;;8.65;3.50;;;22.10;99.90;;;;;;5005525;28;20356;-74
2023/10/05 11:59:09;;;;;;;5.70;1.95;;;22.40;99.90;;;;;;5029530;28;20030;-74
2023/10/05 12:01:39;;;;;;;6.50;1.83;;;23.00;99.90;;;;;;5017774;28;20040;-74
2023/10/05 12:04:09;;;;;;;5.28;1.25;;;23.50;99.90;;;;;;5033127;28;20021;-74
2023/10/05 12:06:39;;;;;;;4.40;1.17;;;23.50;99.90;;;;;;5015025;28;20057;-74
2023/10/05 12:11:54;;;;;;;8.02;0.98;;;23.00;99.90;;;;;;4993628;28;20884;-74
2023/10/05 12:14:21;;;;;;;6.88;1.00;;;22.60;99.90;;;;;;5015807;28;20041;-73
2023/10/05 12:16:47;;;;;;;6.20;1.38;;;22.20;99.90;;;;;;5016589;28;20041;-74
2023/10/05 12:19:13;;;;;;;6.45;1.05;;;22.00;99.90;;;;;;4996434;28;20032;-75
2023/10/05 12:21:44;;;;;;;4.28;1.00;;;21.70;99.90;;;;;;5016340;28;20034;-75
2023/10/05 12:24:11;;;;;;;5.00;1.08;;;21.50;99.90;;;;;;5028927;28;20369;-75
2023/10/05 12:26:42;;;;;;;4.60;1.20;;;21.30;99.90;;;;;;5017632;28;20021;-74
2023/10/05 12:29:12;;;;;;;4.53;0.90;;;21.30;99.90;;;;;;5014113;28;20037;-74
2023/10/05 12:31:49;;;;;;;6.55;1.50;;;21.30;99.90;;;;;;5000413;28;20037;-74
2023/10/05 12:34:17;;;;;;;4.10;0.63;;;21.10;99.90;;;;;;4999859;28;20037;-74
2023/10/05 12:36:51;;;;;;;4.40;0.93;;;21.00;99.90;;;;;;5014689;28;20436;-75
2023/10/05 12:39:26;;;;;;;4.55;1.00;;;20.90;99.90;;;;;;5016604;28;20029;-74
2023/10/05 12:41:54;;;;;;;5.13;0.73;;;20.80;99.90;;;;;;5017810;28;20870;-73
2023/10/05 12:44:21;;;;;;;6.65;1.63;;;20.70;99.90;;;;;;4992205;28;20034;-75
2023/10/05 12:46:48;;;;;;;5.93;1.58;;;20.50;99.90;;;;;;5014726;28;20029;-74
2023/10/05 12:49:16;;;;;;;4.03;1.30;;;20.40;99.90;;;;;;5016514;28;20041;-75
2023/10/05 12:51:44;;;;;;;4.75;0.80;;;20.40;99.90;;;;;;5017133;28;20024;-74
2023/10/05 12:54:28;;;;;;;6.47;1.48;;;20.50;99.90;;;;;;5016048;28;20383;-75
2023/10/05 12:56:55;;;;;;;4.40;1.23;;;20.50;99.90;;;;;;5012910;28;20044;-76
2023/10/05 12:59:22;;;;;;;7.53;1.63;;;20.30;99.90;;;;;;5001382;28;20037;-75
2023/10/05 13:01:49;;;;;;;6.93;1.52;;;20.10;99.90;;;;;;5020941;28;20034;-76
2023/10/05 13:04:18;;;;;;;6.43;1.48;;;20.00;99.90;;;;;;5020646;28;20461;-75
2023/10/05 13:06:46;;;;;;;6.07;1.25;;;19.90;99.90;;;;;;5021125;28;20042;-76
2023/10/05 13:09:13;;;;;;;3.10;0.70;;;20.00;99.90;;;;;;5032346;28;20057;-75
2023/10/05 13:11:41;;;;;;;2.20;0.80;;;20.20;99.90;;;;;;5004406;28;20056;-76
2023/10/05 13:14:14;;;;;;;4.30;0.60;;;20.30;99.90;;;;;;5003365;28;20033;-76
2023/10/05 13:16:41;;;;;;;4.68;0.70;;;20.40;99.90;;;;;;5020385;28;20036;-75
2023/10/05 13:19:12;;;;;;;3.90;0.63;;;20.50;99.90;;;;;;5035856;28;20492;-75
2023/10/05 13:21:45;;;;;;;3.08;0.70;;;20.50;99.90;;;;;;5017614;28;20037;-76
2023/10/05 13:24:15;;;;;;;3.72;0.50;;;20.40;99.90;;;;;;4979235;28;20462;-76
2023/10/05 13:26:45;;;;;;;4.68;0.80;;;20.50;99.90;;;;;;5015287;28;20484;-78